Etusivu
METAR-TAF:

METAR-TAF

Lentoasemat :

Murmanskin lentoasema

Murmansk, Venäjä

Leveyspiiri: 68-58N, Pituuspiiri: 033-03E, korkeus merenpinnasta: 51 m

Tämänhetkinen sää

Tämä raportti tehtiin 44 minuuttia sitten, kello 12.00 UTC
Tuuli 8 kn lounaasta
Lämpötila 6°C
Kosteus 45%
Ilmanpaine 1003 hPa
Näkyvyys 10 km tai enemmän
Hajanaisia pilviä 3300 ft:n korkeudessa

METAR: ULMM 251200Z 22004MPS 9999 SCT033 06/M05 Q1003 R31/090070 NOSIG RMK QFE745

Aika: 15:44 (12:44 UTC)


TAF: puuttuu

Säähavainnot ja -ennusteet yli 4000 lentoasemalta (METAR- ja TAF-raportit).

Käytössä olevat sääasemat on merkitty karttaan keltaisilla ja punaisilla pisteillä.

Aseta hiiri pisteen päälle nähdäksesi sääaseman nimen.

Klikkaa sitten nähdäksesi säähavainnot ja -ennusteet.

Kartan vaihtaminen: klikkaa mustalla rastilla varustettuja vihreitä pisteitä, niin voit zoomata sisään; viivalla varustettua vihreää pistettä, niin voit zoomata ulos tai vihreitä nuolia, niin pääset viereisille kartoille.


METAR-TAF: